Aviation Digital Data Service (ADDS)

Output produced by METARs form (0238 UTC 26 July 2016)
found at http://aviationweather.gov/adds/metars/
 
KTOL 252330Z 2600/2624 27010KT P6SM SCT250 
     FM260100 VRB03KT P6SM SKC 
     FM261500 04006KT P6SM FEW035 
     FM261800 VRB03KT P6SM SKC